createdAt,value
2018-01-05T00:00:36.885Z,96448.72
2018-01-05T00:03:05.183Z,96464.63
2018-01-05T00:05:33.431Z,96478.39
2018-01-05T00:08:01.717Z,96477.06
2018-01-05T00:10:29.956Z,96473.20
2018-01-05T00:12:59.050Z,96483.77
2018-01-05T00:15:27.339Z,96488.89
2018-01-05T00:17:55.604Z,96485.19
2018-01-05T00:20:23.903Z,96489.81
2018-01-05T00:22:52.962Z,96492.45
2018-01-05T00:25:22.398Z,96480.09
2018-01-05T00:27:50.694Z,96476.27
2018-01-05T00:30:18.949Z,96478.13
2018-01-05T00:32:48.027Z,96482.78
2018-01-05T00:35:16.300Z,96488.02
2018-01-05T00:37:44.562Z,96489.34
2018-01-05T00:40:12.882Z,96488.13
2018-01-05T00:42:41.923Z,96503.83
2018-01-05T00:45:10.947Z,96505.31
2018-01-05T00:47:39.220Z,96519.63
2018-01-05T00:50:08.232Z,96506.23
2018-01-05T00:52:37.263Z,96512.48
2018-01-05T00:55:05.511Z,96515.44
2018-01-05T00:57:33.789Z,96515.34
2018-01-05T01:00:02.044Z,96528.75
2018-01-05T01:02:30.313Z,96541.19
2018-01-05T01:04:58.566Z,96553.02
2018-01-05T01:07:26.832Z,96547.93
2018-01-05T01:09:55.085Z,96544.16
2018-01-05T01:12:23.339Z,96553.19
2018-01-05T01:14:52.376Z,96562.05
2018-01-05T01:17:20.649Z,96550.81
2018-01-05T01:19:49.665Z,96551.39
2018-01-05T01:22:17.967Z,96552.27
2018-01-05T01:24:46.224Z,96550.89
2018-01-05T01:27:15.241Z,96554.06
2018-01-05T01:29:44.279Z,96562.02
2018-01-05T01:32:12.540Z,96569.67
2018-01-05T01:34:41.582Z,96576.45
2018-01-05T01:37:09.839Z,96579.91
2018-01-05T01:39:38.144Z,96582.95
2018-01-05T01:42:06.402Z,96590.30
2018-01-05T01:44:35.451Z,96601.45
2018-01-05T01:47:03.700Z,96598.84
2018-01-05T01:49:32.724Z,96592.91
2018-01-05T01:52:00.981Z,96582.80
2018-01-05T01:54:29.259Z,96592.37
2018-01-05T01:56:57.503Z,96586.87
2018-01-05T01:59:25.780Z,96596.27
2018-01-05T02:01:54.034Z,96599.44
2018-01-05T02:04:22.307Z,96601.46
2018-01-05T02:06:50.557Z,96593.41
2018-01-05T02:09:18.841Z,96601.02
2018-01-05T02:11:47.092Z,96585.25
2018-01-05T02:14:15.361Z,96577.66
2018-01-05T02:16:43.617Z,96579.91
2018-01-05T02:19:11.900Z,96583.47
2018-01-05T02:21:40.152Z,96585.31
2018-01-05T02:24:09.183Z,96593.33
2018-01-05T02:26:37.437Z,96595.14
2018-01-05T02:29:05.713Z,96594.57
2018-01-05T02:31:33.963Z,96607.48
2018-01-05T02:34:02.251Z,96610.67
2018-01-05T02:36:30.505Z,96599.74
2018-01-05T02:38:58.772Z,96588.27
2018-01-05T02:41:27.030Z,96590.52
2018-01-05T02:43:55.300Z,96581.83
2018-01-05T02:46:23.565Z,96585.80
2018-01-05T02:48:52.615Z,96589.27
2018-01-05T02:51:20.870Z,96606.07
2018-01-05T02:53:49.885Z,96602.41
2018-01-05T02:56:18.156Z,96596.88
2018-01-05T02:58:47.180Z,96592.09
2018-01-05T03:01:15.451Z,96583.69
2018-01-05T03:03:44.546Z,96558.03
2018-01-05T03:06:12.773Z,96566.03
2018-01-05T03:08:41.019Z,96561.55
2018-01-05T03:11:09.304Z,96571.98
2018-01-05T03:13:37.560Z,96562.63
2018-01-05T03:16:05.825Z,96565.34
2018-01-05T03:18:34.093Z,96553.20
2018-01-05T03:21:03.684Z,96566.91
2018-01-05T03:23:31.941Z,96568.24
2018-01-05T03:26:00.221Z,96566.60
2018-01-05T03:28:28.475Z,96576.73
2018-01-05T03:30:57.521Z,96575.27
2018-01-05T03:33:25.789Z,96567.04
2018-01-05T03:35:54.812Z,96566.92
2018-01-05T03:38:23.062Z,96583.44
2018-01-05T03:40:52.114Z,96572.78
2018-01-05T03:43:20.389Z,96567.95
2018-01-05T03:45:48.668Z,96570.20
2018-01-05T03:48:17.684Z,96569.97
2018-01-05T03:50:45.968Z,96571.45
2018-01-05T03:53:14.215Z,96557.37
2018-01-05T03:55:42.520Z,96550.01
2018-01-05T03:58:11.535Z,96541.03
2018-01-05T04:00:41.395Z,96534.95
2018-01-05T04:03:09.680Z,96533.41
2018-01-05T04:05:37.972Z,96529.65
2018-01-05T04:08:06.239Z,96540.63
2018-01-05T04:10:35.260Z,96545.97
2018-01-05T04:13:03.513Z,96543.81
2018-01-05T04:15:31.790Z,96545.85
2018-01-05T04:18:00.053Z,96527.53
2018-01-05T04:20:29.088Z,96535.92
2018-01-05T04:22:57.339Z,96558.48
2018-01-05T04:25:25.615Z,96550.10
2018-01-05T04:27:53.872Z,96544.39
2018-01-05T04:30:22.887Z,96553.23
2018-01-05T04:32:51.918Z,96549.48
2018-01-05T04:35:20.180Z,96545.24
2018-01-05T04:37:49.975Z,96543.81
2018-01-05T04:40:18.219Z,96538.24
2018-01-05T04:42:46.492Z,96540.19
2018-01-05T04:45:14.748Z,96540.25
2018-01-05T04:47:43.021Z,96531.03
2018-01-05T04:50:11.276Z,96527.41
2018-01-05T04:52:39.549Z,96520.28
2018-01-05T04:55:07.797Z,96514.84
2018-01-05T04:57:36.158Z,96508.67
2018-01-05T05:00:04.416Z,96511.59
2018-01-05T05:02:32.693Z,96511.31
2018-01-05T05:05:01.710Z,96496.25
2018-01-05T05:07:30.735Z,96480.27
2018-01-05T05:09:58.992Z,96474.30
2018-01-05T05:12:28.024Z,96465.23
2018-01-05T05:14:56.267Z,96445.11
2018-01-05T05:17:24.536Z,96446.31
2018-01-05T05:19:52.791Z,96437.48
2018-01-05T05:22:21.059Z,96455.78
2018-01-05T05:24:50.070Z,96463.75
2018-01-05T05:27:19.102Z,96450.88
2018-01-05T05:29:47.347Z,96454.37
2018-01-05T05:32:16.387Z,96456.16
2018-01-05T05:34:44.628Z,96447.89
2018-01-05T05:37:12.900Z,96439.60
2018-01-05T05:39:41.156Z,96432.35
2018-01-05T05:42:09.408Z,96422.05
2018-01-05T05:44:38.441Z,96432.50
2018-01-05T05:47:06.725Z,96423.81
2018-01-05T05:49:35.732Z,96425.67
2018-01-05T05:52:03.990Z,96431.07
2018-01-05T05:54:32.236Z,96437.59
2018-01-05T05:57:00.487Z,96428.92
2018-01-05T05:59:28.763Z,96434.67
2018-01-05T06:01:57.007Z,96427.81
2018-01-05T06:04:25.275Z,96429.66
2018-01-05T06:06:53.517Z,96424.86
2018-01-05T06:09:21.782Z,96418.89
2018-01-05T06:11:50.801Z,96423.58
2018-01-05T06:14:19.068Z,96429.27
2018-01-05T06:16:47.344Z,96426.48
2018-01-05T06:19:15.600Z,96415.61
2018-01-05T06:21:44.605Z,96427.03
2018-01-05T06:24:13.644Z,96417.22
2018-01-05T06:26:41.905Z,96421.98
2018-01-05T06:29:10.941Z,96418.68
2018-01-05T06:31:39.223Z,96407.42
2018-01-05T06:34:07.500Z,96403.69
2018-01-05T06:36:36.524Z,96402.87
2018-01-05T06:39:04.823Z,96400.23
2018-01-05T06:41:33.077Z,96398.94
2018-01-05T06:44:02.100Z,96406.75
2018-01-05T06:46:30.383Z,96393.73
2018-01-05T06:48:59.412Z,96397.84
2018-01-05T06:51:27.659Z,96386.33
2018-01-05T06:53:56.951Z,96386.34
2018-01-05T06:56:25.188Z,96379.45
2018-01-05T06:58:53.447Z,96381.05
2018-01-05T07:01:22.484Z,96374.59
2018-01-05T07:03:50.760Z,96383.35
2018-01-05T07:06:19.785Z,96379.45
2018-01-05T07:08:48.058Z,96382.38
2018-01-05T07:11:16.320Z,96390.50
2018-01-05T07:13:44.602Z,96383.33
2018-01-05T07:16:12.864Z,96396.87
2018-01-05T07:18:41.132Z,96381.75
2018-01-05T07:21:09.387Z,96394.59
2018-01-05T07:23:38.402Z,96394.59
2018-01-05T07:26:07.441Z,96395.55
2018-01-05T07:28:35.692Z,96392.75
2018-01-05T07:31:04.924Z,96384.92
2018-01-05T07:33:33.183Z,96372.18
2018-01-05T07:36:01.467Z,96362.89
2018-01-05T07:38:29.730Z,96376.53
2018-01-05T07:40:58.835Z,96382.38
2018-01-05T07:43:27.102Z,96383.44
2018-01-05T07:45:55.373Z,96385.71
2018-01-05T07:48:23.606Z,96380.41
2018-01-05T07:50:51.885Z,96388.18
2018-01-05T07:53:20.142Z,96388.84
2018-01-05T07:55:48.426Z,96397.58
2018-01-05T07:58:17.456Z,96388.41
2018-01-05T08:00:45.768Z,96397.72
2018-01-05T08:03:14.008Z,96402.20
2018-01-05T08:05:42.282Z,96411.59
2018-01-05T08:08:11.303Z,96418.59
2018-01-05T08:10:39.608Z,96424.67
2018-01-05T08:13:07.857Z,96415.38
2018-01-05T08:15:36.140Z,96433.94
2018-01-05T08:18:04.392Z,96435.78
2018-01-05T08:20:32.667Z,96432.69
2018-01-05T08:23:00.920Z,96428.13
2018-01-05T08:25:29.962Z,96430.53
2018-01-05T08:27:58.221Z,96431.00
2018-01-05T08:30:27.251Z,96427.54
2018-01-05T08:32:55.534Z,96428.98
2018-01-05T08:35:23.804Z,96419.92
2018-01-05T08:37:52.072Z,96432.55
2018-01-05T08:40:20.348Z,96426.92
2018-01-05T08:42:48.612Z,96418.26
2018-01-05T08:45:16.889Z,96419.64
2018-01-05T08:47:45.149Z,96420.44
2018-01-05T08:50:14.184Z,96415.72
2018-01-05T08:52:42.473Z,96412.20
2018-01-05T08:55:10.729Z,96412.91
2018-01-05T08:57:39.760Z,96414.60
2018-01-05T09:00:08.029Z,96412.54
2018-01-05T09:02:37.090Z,96409.67
2018-01-05T09:05:05.362Z,96413.80
2018-01-05T09:07:33.642Z,96421.67
2018-01-05T09:10:01.916Z,96408.37
2018-01-05T09:12:30.983Z,96408.16
2018-01-05T09:14:59.244Z,96411.09
2018-01-05T09:17:27.533Z,96408.97
2018-01-05T09:19:55.800Z,96414.55
2018-01-05T09:22:24.121Z,96431.59
2018-01-05T09:24:52.385Z,96432.58
2018-01-05T09:27:20.648Z,96433.95
2018-01-05T09:29:49.673Z,96438.53
2018-01-05T09:32:17.975Z,96436.97
2018-01-05T09:34:46.244Z,96445.67
2018-01-05T09:37:15.294Z,96445.10
2018-01-05T09:39:43.610Z,96444.66
2018-01-05T09:42:11.867Z,96444.84
2018-01-05T09:44:40.106Z,96444.34
2018-01-05T09:47:09.157Z,96454.12
2018-01-05T09:49:37.418Z,96447.28
2018-01-05T09:52:06.455Z,96445.38
2018-01-05T09:54:34.736Z,96446.34
2018-01-05T09:57:03.024Z,96436.45
2018-01-05T09:59:31.652Z,96438.38
2018-01-05T10:01:59.995Z,96440.80
2018-01-05T10:04:28.271Z,96437.56
2018-01-05T10:06:57.321Z,96432.98
2018-01-05T10:09:25.580Z,96421.22
2018-01-05T10:11:53.869Z,96422.42
2018-01-05T10:14:23.267Z,96411.97
2018-01-05T10:16:51.553Z,96413.84
2018-01-05T10:19:21.356Z,96416.90
2018-01-05T10:21:49.662Z,96404.64
2018-01-05T10:24:17.956Z,96401.66
2018-01-05T10:26:46.240Z,96404.72
2018-01-05T10:29:14.585Z,96395.20
2018-01-05T10:31:42.862Z,96394.08
2018-01-05T10:34:11.944Z,96389.29
2018-01-05T10:36:40.223Z,96390.73
2018-01-05T10:39:09.290Z,96391.86
2018-01-05T10:41:37.548Z,96391.23
2018-01-05T10:44:05.909Z,96395.34
2018-01-05T10:46:34.189Z,96385.28
2018-01-05T10:49:02.471Z,96384.48
2018-01-05T10:51:30.731Z,96383.22
2018-01-05T10:54:00.888Z,96384.16
2018-01-05T10:56:30.252Z,96367.57
2018-01-05T10:58:58.529Z,96370.17
2018-01-05T11:01:28.134Z,96352.45
2018-01-05T11:03:57.189Z,96346.91
2018-01-05T11:06:25.436Z,96349.03
2018-01-05T11:08:54.468Z,96343.83
2018-01-05T11:11:22.735Z,96346.56
2018-01-05T11:13:51.797Z,96332.98
2018-01-05T11:16:20.055Z,96335.45
2018-01-05T11:18:48.344Z,96337.27
2018-01-05T11:21:16.604Z,96338.86
2018-01-05T11:23:45.669Z,96331.98
2018-01-05T11:26:13.949Z,96331.12
2018-01-05T11:28:42.313Z,96335.11
2018-01-05T11:31:11.298Z,96335.97
2018-01-05T11:33:40.344Z,96346.41
2018-01-05T11:36:08.597Z,96343.24
2018-01-05T11:38:37.647Z,96343.63
2018-01-05T11:41:05.905Z,96337.71
2018-01-05T11:43:34.185Z,96335.31
2018-01-05T11:46:03.204Z,96334.25
2018-01-05T11:48:31.465Z,96336.72
2018-01-05T11:51:00.509Z,96335.70
2018-01-05T11:53:28.769Z,96328.52
2018-01-05T11:55:57.817Z,96332.27
2018-01-05T11:58:26.866Z,96333.38
2018-01-05T12:00:55.145Z,96320.73
2018-01-05T12:03:23.420Z,96317.05
2018-01-05T12:05:51.697Z,96317.69
2018-01-05T12:08:19.964Z,96319.14
2018-01-05T12:10:48.240Z,96315.23
2018-01-05T12:13:17.262Z,96314.52
2018-01-05T12:15:46.342Z,96308.24
2018-01-05T12:18:14.622Z,96296.76
2018-01-05T12:20:42.888Z,96296.17
2018-01-05T12:23:11.153Z,96306.98
2018-01-05T12:25:39.430Z,96308.38
2018-01-05T12:28:07.689Z,96293.78
2018-01-05T12:30:36.733Z,96279.98
2018-01-05T12:33:05.007Z,96277.05
2018-01-05T12:35:33.282Z,96291.52
2018-01-05T12:38:02.316Z,96290.52
2018-01-05T12:40:30.612Z,96284.42
2018-01-05T12:42:58.932Z,96285.16
2018-01-05T12:45:27.171Z,96284.56
2018-01-05T12:47:55.477Z,96278.56
2018-01-05T12:50:23.756Z,96280.83
2018-01-05T12:52:52.012Z,96284.78
2018-01-05T12:55:21.050Z,96282.58
2018-01-05T12:57:49.301Z,96280.17
2018-01-05T13:00:17.603Z,96279.17
2018-01-05T13:02:45.861Z,96283.03
2018-01-05T13:05:14.141Z,96277.11
2018-01-05T13:07:43.159Z,96274.30
2018-01-05T13:10:11.442Z,96276.59
2018-01-05T13:12:39.693Z,96274.70
2018-01-05T13:15:07.977Z,96279.08
2018-01-05T13:17:36.276Z,96277.35
2018-01-05T13:20:04.528Z,96282.70
2018-01-05T13:22:32.800Z,96271.90
2018-01-05T13:25:01.066Z,96277.19
2018-01-05T13:27:29.336Z,96274.98
2018-01-05T13:29:57.594Z,96283.28
2018-01-05T13:32:27.378Z,96283.45
2018-01-05T13:34:55.694Z,96287.48
2018-01-05T13:37:24.749Z,96295.80
2018-01-05T13:39:53.016Z,96293.31
2018-01-05T13:42:21.292Z,96283.31
2018-01-05T13:44:50.338Z,96284.60
2018-01-05T13:47:18.602Z,96287.69
2018-01-05T13:49:46.876Z,96293.52
2018-01-05T13:52:15.924Z,96286.47
2018-01-05T13:54:44.192Z,96289.41
2018-01-05T13:57:12.480Z,96290.92
2018-01-05T13:59:40.764Z,96291.23
2018-01-05T14:02:09.040Z,96283.33
2018-01-05T14:04:38.075Z,96289.80
2018-01-05T14:07:06.360Z,96283.95
2018-01-05T14:09:34.618Z,96287.02
2018-01-05T14:12:03.661Z,96285.67
2018-01-05T14:14:31.928Z,96290.55
2018-01-05T14:17:00.972Z,96294.35
2018-01-05T14:19:29.248Z,96305.06
2018-01-05T14:21:57.524Z,96301.66
2018-01-05T14:24:25.793Z,96307.09
2018-01-05T14:26:54.844Z,96318.38
2018-01-05T14:29:23.092Z,96329.65
2018-01-05T14:31:52.127Z,96334.92
2018-01-05T14:34:20.393Z,96348.56
2018-01-05T14:36:49.444Z,96344.62
2018-01-05T14:39:18.480Z,96353.49
2018-01-05T14:41:46.763Z,96350.63
2018-01-05T14:44:15.028Z,96361.81
2018-01-05T14:46:43.308Z,96362.55
2018-01-05T14:49:11.572Z,96370.98
2018-01-05T14:51:39.864Z,96358.27
2018-01-05T14:54:08.116Z,96361.19
2018-01-05T14:56:36.383Z,96369.14
2018-01-05T14:59:04.663Z,96382.44
2018-01-05T15:01:32.919Z,96381.25
2018-01-05T15:04:01.178Z,96393.20
2018-01-05T15:06:29.428Z,96381.66
2018-01-05T15:08:57.680Z,96386.70
2018-01-05T15:11:25.942Z,96399.62
2018-01-05T15:13:54.210Z,96410.11
2018-01-05T15:16:23.976Z,96414.77
2018-01-05T15:18:53.033Z,96403.63
2018-01-05T15:23:55.728Z,96421.06
2018-01-05T15:26:23.984Z,96433.02
2018-01-05T15:28:53.020Z,96423.99
2018-01-05T15:31:21.275Z,96433.16
2018-01-05T15:33:49.541Z,96441.80
2018-01-05T15:36:17.816Z,96435.05
2018-01-05T15:38:46.094Z,96445.53
2018-01-05T15:41:14.352Z,96451.89
2018-01-05T15:43:42.607Z,96448.84
2018-01-05T15:46:10.880Z,96447.92
2018-01-05T15:48:39.156Z,96445.39
2018-01-05T15:51:07.408Z,96447.80
2018-01-05T15:53:35.672Z,96456.69
2018-01-05T15:56:04.708Z,96454.81
2018-01-05T15:58:32.979Z,96453.62
2018-01-05T16:01:02.023Z,96460.92
2018-01-05T16:03:30.312Z,96463.44
2018-01-05T16:05:58.610Z,96466.61
2018-01-05T16:08:26.880Z,96457.61
2018-01-05T16:10:55.170Z,96461.58
2018-01-05T16:13:23.489Z,96468.34
2018-01-05T16:15:51.756Z,96465.43
2018-01-05T16:18:20.026Z,96464.64
2018-01-05T16:20:48.318Z,96481.48
2018-01-05T16:23:16.571Z,96487.84
2018-01-05T16:25:44.832Z,96485.47
2018-01-05T16:28:13.094Z,96499.67
2018-01-05T16:30:41.418Z,96494.34
2018-01-05T16:33:09.768Z,96496.86
2018-01-05T16:35:38.041Z,96497.00
2018-01-05T16:38:07.064Z,96492.75
2018-01-05T16:40:35.336Z,96498.05
2018-01-05T16:43:04.421Z,96498.70
2018-01-05T16:45:32.697Z,96494.87
2018-01-05T16:48:01.049Z,96495.91
2018-01-05T16:50:29.359Z,96498.94
2018-01-05T16:52:57.603Z,96500.80
2018-01-05T16:55:26.644Z,96506.90
2018-01-05T16:57:54.941Z,96501.73
2018-01-05T17:00:23.250Z,96509.84
2018-01-05T17:02:51.512Z,96506.66
2018-01-05T17:05:19.791Z,96505.98
2018-01-05T17:07:48.109Z,96503.85
2018-01-05T17:10:17.193Z,96502.17
2018-01-05T17:12:45.447Z,96505.08
2018-01-05T17:15:14.489Z,96510.23
2018-01-05T17:17:42.779Z,96509.54
2018-01-05T17:20:11.070Z,96525.20
2018-01-05T17:22:39.328Z,96533.28
2018-01-05T17:25:07.595Z,96532.47
2018-01-05T17:27:35.840Z,96536.86
2018-01-05T17:30:04.995Z,96535.94
2018-01-05T17:32:33.245Z,96536.83
2018-01-05T17:35:01.541Z,96542.39
2018-01-05T17:37:29.835Z,96543.34
2018-01-05T17:39:58.139Z,96547.72
2018-01-05T17:42:26.389Z,96554.61
2018-01-05T17:44:54.647Z,96559.38
2018-01-05T17:47:23.704Z,96562.95
2018-01-05T17:49:52.030Z,96569.95
2018-01-05T17:52:20.337Z,96572.36
2018-01-05T17:54:49.343Z,96570.02
2018-01-05T17:57:18.380Z,96572.27
2018-01-05T17:59:46.661Z,96571.84
2018-01-05T18:02:15.740Z,96575.66
2018-01-05T18:04:44.793Z,96586.51
2018-01-05T18:07:13.066Z,96587.95
2018-01-05T18:09:41.366Z,96596.67
2018-01-05T18:12:09.678Z,96597.63
2018-01-05T18:14:37.976Z,96592.83
2018-01-05T18:17:06.240Z,96605.55
2018-01-05T18:19:34.492Z,96609.52
2018-01-05T18:22:03.528Z,96609.52
2018-01-05T18:24:32.611Z,96613.09
2018-01-05T18:27:01.705Z,96603.97
2018-01-05T18:29:30.718Z,96608.32
2018-01-05T18:31:59.750Z,96601.45
2018-01-05T18:34:28.012Z,96601.97
2018-01-05T18:36:57.093Z,96604.09
2018-01-05T18:39:25.405Z,96610.32
2018-01-05T18:41:54.523Z,96609.20
2018-01-05T18:44:23.521Z,96607.63
2018-01-05T18:46:52.619Z,96616.59
2018-01-05T18:49:20.922Z,96610.28
2018-01-05T18:51:49.995Z,96615.86
2018-01-05T18:54:18.311Z,96608.72
2018-01-05T18:56:47.376Z,96618.36
2018-01-05T18:59:15.720Z,96611.05
2018-01-05T19:01:44.734Z,96605.67
2018-01-05T19:04:13.785Z,96608.96
2018-01-05T19:06:42.086Z,96623.28
2018-01-05T19:09:10.404Z,96602.58
2018-01-05T19:11:39.471Z,96605.22
2018-01-05T19:14:07.742Z,96610.09
2018-01-05T19:16:36.099Z,96617.23
2018-01-05T19:19:05.118Z,96619.36
2018-01-05T19:21:33.432Z,96621.65
2018-01-05T19:24:01.739Z,96624.30
2018-01-05T19:26:30.056Z,96620.44
2018-01-05T19:28:58.383Z,96629.06
2018-01-05T19:31:26.685Z,96643.48
2018-01-05T19:33:55.007Z,96649.22
2018-01-05T19:36:24.672Z,96658.12
2018-01-05T19:38:53.767Z,96652.03
2018-01-05T19:41:22.075Z,96655.48
2018-01-05T19:43:51.170Z,96657.61
2018-01-05T19:46:20.230Z,96661.34
2018-01-05T19:48:48.548Z,96666.80
2018-01-05T19:51:16.883Z,96666.80
2018-01-05T19:53:45.205Z,96671.67
2018-01-05T19:56:13.500Z,96679.13
2018-01-05T19:58:41.827Z,96659.25
2018-01-05T20:01:10.927Z,96673.95
2018-01-05T20:03:39.289Z,96672.22
2018-01-05T20:06:07.595Z,96692.09
2018-01-05T20:08:35.911Z,96673.63
2018-01-05T20:11:05.554Z,96683.47
2018-01-05T20:13:33.881Z,96677.08
2018-01-05T20:16:02.179Z,96682.55
2018-01-05T20:18:30.532Z,96685.19
2018-01-05T20:20:58.843Z,96685.31
2018-01-05T20:23:27.153Z,96683.06
2018-01-05T20:25:55.476Z,96681.05
2018-01-05T20:28:24.524Z,96684.03
2018-01-05T20:30:52.848Z,96684.55
2018-01-05T20:33:21.146Z,96687.84
2018-01-05T20:35:49.472Z,96681.90
2018-01-05T20:38:17.783Z,96686.68
2018-01-05T20:40:46.106Z,96689.22
2018-01-05T20:43:14.412Z,96697.28
2018-01-05T20:45:42.786Z,96697.69
2018-01-05T20:48:11.067Z,96707.48
2018-01-05T20:50:39.382Z,96710.41
2018-01-05T20:53:08.830Z,96705.79
2018-01-05T20:55:37.136Z,96715.83
2018-01-05T20:58:05.435Z,96711.97
2018-01-05T21:00:33.760Z,96711.33
2018-01-05T21:03:02.071Z,96712.50
2018-01-05T21:05:31.135Z,96720.73
2018-01-05T21:07:59.486Z,96716.63
2018-01-05T21:10:28.567Z,96721.48
2018-01-05T21:12:57.629Z,96735.66
2018-01-05T21:15:25.943Z,96735.70
2018-01-05T21:17:54.236Z,96733.57
2018-01-05T21:20:22.568Z,96735.02
2018-01-05T21:22:50.876Z,96734.25
2018-01-05T21:25:19.199Z,96735.94
2018-01-05T21:27:48.262Z,96742.78
2018-01-05T21:30:16.568Z,96751.65
2018-01-05T21:32:44.870Z,96751.89
2018-01-05T21:35:13.196Z,96754.94
2018-01-05T21:37:42.499Z,96758.92
2018-01-05T21:40:10.793Z,96755.86
2018-01-05T21:42:39.095Z,96762.08
2018-01-05T21:45:09.191Z,96760.88
2018-01-05T21:47:37.641Z,96764.89
2018-01-05T21:50:05.958Z,96769.47
2018-01-05T21:52:35.995Z,96781.72
2018-01-05T21:55:04.321Z,96780.12
2018-01-05T21:57:32.615Z,96777.46
2018-01-05T22:00:00.972Z,96773.20
2018-01-05T22:02:29.278Z,96775.22
2018-01-05T22:04:57.567Z,96768.47
2018-01-05T22:07:25.878Z,96766.22
2018-01-05T22:09:54.162Z,96769.23
2018-01-05T22:12:22.496Z,96766.81
2018-01-05T22:14:50.791Z,96768.53
2018-01-05T22:17:19.118Z,96772.45
2018-01-05T22:19:47.424Z,96774.12
2018-01-05T22:22:15.688Z,96771.88
2018-01-05T22:24:44.009Z,96771.34
2018-01-05T22:27:13.104Z,96786.17
2018-01-05T22:29:41.425Z,96782.12
2018-01-05T22:32:10.505Z,96785.63
2018-01-05T22:34:38.815Z,96780.12
2018-01-05T22:37:07.932Z,96782.47
2018-01-05T22:39:37.252Z,96783.92
2018-01-05T22:42:05.552Z,96781.11
2018-01-05T22:44:33.897Z,96795.84
2018-01-05T22:47:02.207Z,96799.93
2018-01-05T22:49:30.519Z,96813.94
2018-01-05T22:51:58.827Z,96824.34
2018-01-05T22:54:27.067Z,96819.45
2018-01-05T22:56:56.160Z,96821.48
2018-01-05T22:59:24.470Z,96826.84
2018-01-05T23:01:53.552Z,96831.09
2018-01-05T23:04:21.850Z,96820.51
2018-01-05T23:06:50.174Z,96823.08
2018-01-05T23:09:19.256Z,96820.50
2018-01-05T23:11:47.573Z,96824.99
2018-01-05T23:14:16.700Z,96829.95
2018-01-05T23:16:45.015Z,96827.53
2018-01-05T23:19:13.314Z,96827.52
2018-01-05T23:21:41.652Z,96824.35
2018-01-05T23:24:10.716Z,96824.23
2018-01-05T23:26:39.059Z,96832.93
2018-01-05T23:29:07.372Z,96825.91
2018-01-05T23:31:35.663Z,96835.58
2018-01-05T23:34:03.916Z,96835.94
2018-01-05T23:36:32.992Z,96829.98
2018-01-05T23:39:01.308Z,96836.63
2018-01-05T23:41:30.385Z,96841.52
2018-01-05T23:43:58.702Z,96835.52
2018-01-05T23:46:27.777Z,96837.66
2018-01-05T23:48:56.091Z,96840.24
2018-01-05T23:51:24.391Z,96832.91
2018-01-05T23:53:52.714Z,96834.47
2018-01-05T23:56:21.019Z,96835.08
2018-01-05T23:58:49.340Z,96841.42
